Time;durP1;ratioP1;P1;durP2;ratioP2;P2;SDS_P1;SDS_P2;PMS_P1;PMS_P2;Temp;Humidity;BMP_temperature;BMP_pressure;BME280_temperature;BME280_humidity;BME280_pressure;Samples;Min_cycle;Max_cycle;Signal;HPM_P1;HPM_P2
2021/12/07 04:32:25;;;;;;;3.60;2.60;;;;;;;8.11;59.88;98242.50;7425521;23;20241;-80
2021/12/07 04:35:50;;;;;;;2.70;2.53;;;;;;;7.75;59.69;98236.59;6898488;28;20255;-79
2021/12/07 04:39:13;;;;;;;2.70;2.50;;;;;;;7.81;60.21;98243.00;6897379;28;20689;-80
2021/12/07 04:42:34;;;;;;;2.73;2.53;;;;;;;7.78;60.03;98259.53;6896799;28;20321;-79
2021/12/07 04:46:05;;;;;;;3.43;2.70;;;;;;;7.89;60.15;98250.91;6896892;28;20212;-79
2021/12/07 05:00:29;;;;;;;2.70;2.50;;;;;;;7.55;60.84;98261.69;6896642;28;20256;-79
2021/12/07 05:03:53;;;;;;;2.70;2.40;;;;;;;7.91;60.47;98268.44;6896218;28;20205;-79
2021/12/07 05:07:24;;;;;;;2.80;2.60;;;;;;;7.67;61.14;98282.38;6895290;28;20232;-79
2021/12/07 05:14:36;;;;;;;2.70;2.50;;;;;;;7.15;62.53;98291.97;7082693;27;20538;-79
2021/12/07 05:18:07;;;;;;;2.83;2.63;;;;;;;6.79;62.66;98302.81;7082686;27;20276;-78
2021/12/07 05:39:45;;;;;;;3.10;2.87;;;;;;;7.73;59.59;98310.28;7082333;27;20198;-78
2021/12/07 05:43:06;;;;;;;2.90;2.70;;;;;;;8.03;59.03;98308.97;7082741;27;20761;-78
2021/12/07 05:46:28;;;;;;;3.63;2.87;;;;;;;7.92;59.06;98322.94;7082039;27;20209;-78
2021/12/07 05:49:51;;;;;;;3.13;2.83;;;;;;;7.64;59.07;98298.03;7078441;27;20210;-78
2021/12/07 05:53:13;;;;;;;4.67;2.67;;;;;;;8.02;59.23;98323.41;7064857;28;20235;-78
2021/12/07 05:56:35;;;;;;;3.00;2.70;;;;;;;8.23;58.20;98328.66;7055597;28;20224;-78
2021/12/07 05:59:56;;;;;;;3.00;2.80;;;;;;;7.94;58.51;98337.81;7082356;27;20211;-78
2021/12/07 06:03:18;;;;;;;4.53;3.10;;;;;;;7.80;59.31;98316.50;7082966;27;20227;-78
2021/12/07 06:06:41;;;;;;;3.07;2.80;;;;;;;8.00;59.41;98337.03;7078389;28;20202;-78
2021/12/07 06:10:04;;;;;;;2.33;2.23;;;;;;;8.09;58.99;98340.38;7052855;27;20201;-78
2021/12/07 06:13:25;;;;;;;2.63;2.43;;;;;;;8.12;58.57;98351.53;7053306;28;20249;-78
2021/12/07 06:16:47;;;;;;;2.60;2.40;;;;;;;8.29;58.31;98349.34;7052940;28;20686;-78
2021/12/07 06:20:10;;;;;;;2.70;2.50;;;;;;;8.09;58.26;98335.00;7053342;28;20221;-78
2021/12/07 06:23:33;;;;;;;2.70;2.50;;;;;;;8.04;59.26;98367.81;7048012;28;20207;-78
2021/12/07 06:26:55;;;;;;;2.83;2.60;;;;;;;8.39;58.00;98371.28;7034329;28;20207;-78
2021/12/07 06:30:16;;;;;;;3.97;2.80;;;;;;;8.53;57.53;98375.66;7033902;28;20377;-77
2021/12/07 06:33:38;;;;;;;3.60;3.07;;;;;;;8.49;57.38;98375.22;7034005;28;20232;-78
2021/12/07 06:37:00;;;;;;;6.13;3.47;;;;;;;8.52;57.51;98387.44;7033196;28;20216;-78
2021/12/07 06:40:23;;;;;;;5.77;4.20;;;;;;;8.61;57.06;98373.59;7033272;28;20215;-78
2021/12/07 06:43:44;;;;;;;6.53;4.03;;;;;;;8.54;57.57;98380.03;7032100;28;20235;-78
2021/12/07 06:47:06;;;;;;;7.37;3.80;;;;;;;8.70;57.28;98390.38;7037385;28;20201;-77
2021/12/07 06:50:30;;;;;;;2.67;2.47;;;;;;;8.62;57.33;98404.00;7058892;28;20237;-79
2021/12/07 06:53:51;;;;;;;2.47;2.37;;;;;;;8.44;57.74;98401.88;7035983;28;20224;-77
2021/12/07 06:57:14;;;;;;;9.30;2.73;;;;;;;8.25;58.71;98393.75;7034171;28;20231;-78
2021/12/07 07:00:37;;;;;;;3.43;2.60;;;;;;;8.06;58.83;98356.84;7034320;28;20232;-78
2021/12/07 07:03:58;;;;;;;3.77;2.50;;;;;;;8.25;58.21;98402.63;7033630;28;20205;-79
2021/12/07 07:07:22;;;;;;;5.73;3.30;;;;;;;8.33;58.76;98409.69;7035090;28;20306;-78
2021/12/07 07:10:44;;;;;;;4.40;2.77;;;;;;;8.11;59.02;98411.63;7034739;28;20227;-78
2021/12/07 07:14:07;;;;;;;3.73;3.17;;;;;;;8.13;59.06;98422.19;7034081;28;20263;-78
2021/12/07 07:17:28;;;;;;;3.20;2.47;;;;;;;8.41;57.64;98396.91;7034540;28;20588;-78
2021/12/07 07:20:50;;;;;;;7.30;2.80;;;;;;;8.26;58.58;98427.63;7034545;28;20273;-79
2021/12/07 07:24:12;;;;;;;4.27;2.90;;;;;;;8.14;58.55;98429.19;7034401;28;20258;-79
2021/12/07 07:27:33;;;;;;;5.13;2.60;;;;;;;8.14;58.35;98442.63;7034568;28;20656;-78
2021/12/07 07:30:57;;;;;;;9.27;3.47;;;;;;;8.02;59.21;98465.69;7034343;28;20227;-78
2021/12/07 07:34:19;;;;;;;3.87;2.90;;;;;;;7.65;60.58;98453.44;7034052;28;20228;-78
2021/12/07 07:37:41;;;;;;;5.87;2.73;;;;;;;7.33;61.96;98470.13;7033097;28;20573;-78
2021/12/07 07:41:03;;;;;;;7.07;3.00;;;;;;;7.62;61.93;98428.88;7034127;28;20228;-78
2021/12/07 07:44:24;;;;;;;4.10;3.33;;;;;;;8.14;59.42;98443.44;7033295;28;20219;-78
2021/12/07 07:47:47;;;;;;;5.83;3.10;;;;;;;8.23;58.49;98436.06;7058291;28;20201;-78
2021/12/07 07:51:09;;;;;;;7.03;3.20;;;;;;;8.44;57.94;98446.72;7036322;28;20227;-78
2021/12/07 07:54:30;;;;;;;7.97;3.60;;;;;;;8.58;58.02;98454.63;7033412;28;20239;-79
2021/12/07 07:57:52;;;;;;;6.70;4.73;;;;;;;8.95;56.63;98447.94;7057142;28;20222;-79
2021/12/07 08:01:14;;;;;;;7.30;4.30;;;;;;;8.67;57.01;98434.59;7061457;28;20226;-78
2021/12/07 08:04:37;;;;;;;8.33;4.33;;;;;;;8.89;57.40;98463.00;7060791;28;20551;-78
2021/12/07 08:07:59;;;;;;;5.80;3.30;;;;;;;8.47;57.82;98454.38;7061294;28;20213;-79
2021/12/07 08:11:20;;;;;;;7.43;3.70;;;;;;;8.39;58.46;98474.19;7049178;28;20273;-78
2021/12/07 08:14:42;;;;;;;4.43;3.90;;;;;;;8.26;59.14;98471.41;7060165;28;20225;-78
2021/12/07 08:18:04;;;;;;;5.33;3.30;;;;;;;8.23;58.94;98465.63;7042915;28;20200;-78
2021/12/07 08:21:27;;;;;;;3.93;3.60;;;;;;;8.00;59.63;98473.94;7049311;28;20686;-79
2021/12/07 08:24:49;;;;;;;4.60;3.93;;;;;;;7.72;60.09;98442.78;7059638;28;20241;-78
2021/12/07 08:28:13;;;;;;;4.90;3.77;;;;;;;8.18;60.22;98479.63;7059600;28;20202;-80
2021/12/07 08:31:35;;;;;;;4.33;3.70;;;;;;;8.18;59.58;98471.56;7060054;28;20224;-78
2021/12/07 08:34:57;;;;;;;5.00;4.17;;;;;;;8.21;59.76;98473.91;7044718;28;20225;-78
2021/12/07 08:38:20;;;;;;;4.93;3.67;;;;;;;8.05;60.55;98462.59;7042582;28;20208;-78
2021/12/07 08:41:41;;;;;;;3.57;2.80;;;;;;;8.14;59.61;98481.03;7031766;28;20237;-78
2021/12/07 08:45:04;;;;;;;5.17;3.40;;;;;;;8.58;59.39;98483.34;7030179;28;20205;-78
2021/12/07 08:48:26;;;;;;;7.40;4.30;;;;;;;8.65;58.56;98471.59;7031576;28;20210;-78
2021/12/07 08:51:48;;;;;;;5.37;4.10;;;;;;;8.57;57.88;98495.97;7031289;28;20238;-78
2021/12/07 09:02:33;;;;;;;7.07;3.30;;;;;;;8.52;58.40;98474.25;7030796;28;20218;-78
2021/12/07 09:05:55;;;;;;;5.23;3.63;;;;;;;8.54;58.03;98492.88;7035316;28;20205;-78
2021/12/07 09:09:17;;;;;;;5.13;2.93;;;;;;;8.87;57.73;98504.56;7031043;28;20210;-78
2021/12/07 09:12:40;;;;;;;3.30;3.00;;;;;;;9.13;55.63;98495.56;7052391;28;20238;-78
2021/12/07 09:16:02;;;;;;;4.47;2.70;;;;;;;9.10;56.26;98490.56;7058354;28;20208;-78
2021/12/07 09:19:24;;;;;;;5.63;3.03;;;;;;;9.09;55.35;98496.97;7059001;28;20248;-78
2021/12/07 09:22:48;;;;;;;3.73;3.30;;;;;;;9.20;55.56;98498.22;7058545;28;20705;-78
2021/12/07 09:26:10;;;;;;;6.77;3.17;;;;;;;9.08;55.82;98500.69;7058572;28;20225;-78
2021/12/07 09:29:33;;;;;;;8.77;3.20;;;;;;;8.99;56.22;98496.53;7059485;28;20611;-78
2021/12/07 09:32:55;;;;;;;6.93;3.53;;;;;;;9.67;53.53;98493.53;7058924;28;20230;-78
2021/12/07 09:36:17;;;;;;;5.37;3.10;;;;;;;9.33;54.61;98487.53;7059262;28;20661;-78
2021/12/07 09:39:39;;;;;;;7.97;3.27;;;;;;;9.37;55.13;98502.19;7059282;28;20597;-78
2021/12/07 09:43:00;;;;;;;8.20;3.10;;;;;;;9.48;55.58;98499.75;7059209;28;20227;-81
2021/12/07 09:46:23;;;;;;;6.77;3.03;;;;;;;9.51;54.33;98509.28;7058314;28;20214;-79
2021/12/07 09:49:45;;;;;;;7.17;3.17;;;;;;;9.57;54.41;98500.38;7044668;28;20216;-78
2021/12/07 09:53:08;;;;;;;8.30;3.00;;;;;;;9.33;54.27;98491.03;7044039;28;20229;-80
2021/12/07 09:56:29;;;;;;;5.53;3.13;;;;;;;10.27;53.34;98497.88;7049698;28;20207;-81
2021/12/07 09:59:51;;;;;;;8.83;4.30;;;;;;;9.75;53.93;98501.41;7048013;28;20202;-79
2021/12/07 10:03:16;;;;;;;17.90;5.53;;;;;;;9.79;53.82;98509.88;7059017;28;20224;-78
2021/12/07 10:06:39;;;;;;;7.60;3.10;;;;;;;10.14;53.15;98509.50;7063251;28;20200;-78
2021/12/07 10:10:00;;;;;;;11.90;3.53;;;;;;;10.71;51.67;98511.41;7060145;28;20671;-79
2021/12/07 10:13:23;;;;;;;7.43;3.07;;;;;;;10.57;51.81;98499.03;7062564;28;20249;-78
2021/12/07 10:16:45;;;;;;;5.17;2.80;;;;;;;10.72;51.56;98504.97;7062926;28;20660;-78
2021/12/07 10:20:38;;;;;;;9.43;3.30;;;;;;;10.48;51.05;98493.06;7063596;28;20211;-78
2021/12/07 10:24:02;;;;;;;11.63;3.10;;;;;;;10.01;52.25;98500.56;7062945;28;20229;-78
2021/12/07 10:27:35;;;;;;;5.80;2.73;;;;;;;10.61;52.70;98505.63;7063808;28;20207;-78
2021/12/07 10:30:58;;;;;;;4.87;3.00;;;;;;;10.51;51.42;98511.47;7063230;28;20238;-78
2021/12/07 10:34:23;;;;;;;9.57;2.70;;;;;;;10.35;52.24;98503.88;7064377;27;20224;-78
2021/12/07 10:38:06;;;;;;;3.53;2.67;;;;;;;10.34;50.48;98487.91;7064499;27;20230;-78
2021/12/07 10:41:32;;;;;;;3.70;2.50;;;;;;;9.63;49.34;98488.78;7064166;28;20235;-78
2021/12/07 10:45:00;;;;;;;13.07;2.40;;;;;;;9.56;49.27;98461.84;7029256;22;20234;-86
2021/12/07 10:48:59;;;;;;;;;;;;;;;;;;;;;
2021/12/07 10:52:42;;;;;;;4.20;2.77;;;;;;;10.05;49.26;98474.91;6936254;28;20274;-87
2021/12/07 11:00:26;;;;;;;3.20;2.70;;;;;;;10.46;47.76;98462.78;6958873;28;20213;-86
2021/12/07 11:08:33;;;;;;;5.53;3.30;;;;;;;10.14;48.60;98450.22;6961310;28;20687;-87
2021/12/07 11:12:25;;;;;;;5.43;2.60;;;;;;;10.39;48.00;98432.31;6905096;28;20203;-88
2021/12/07 11:21:30;;;;;;;6.40;2.63;;;;;;;10.14;48.25;98436.75;6768860;29;20212;-89
2021/12/07 11:25:01;;;;;;;6.67;3.00;;;;;;;10.42;48.45;98429.22;6706274;29;20240;-90
2021/12/07 12:40:30;;;;;;;5.80;2.80;;;;;;;11.41;45.96;98309.69;6461361;30;20214;-86
2021/12/07 12:43:54;;;;;;;6.90;4.70;;;;;;;12.36;45.13;98334.19;6629758;29;20604;-88
2021/12/07 12:52:35;;;;;;;5.27;3.83;;;;;;;11.65;45.22;98319.66;6614195;30;20239;-88
2021/12/07 12:56:18;;;;;;;5.07;3.03;;;;;;;11.91;46.05;98315.81;6697741;29;20244;-89
2021/12/07 13:08:13;;;;;;;2.90;2.60;;;;;;;11.73;45.09;98303.13;6898555;28;20221;-86
2021/12/07 13:11:39;;;;;;;6.43;2.60;;;;;;;11.90;44.23;98317.69;6895895;28;20299;-86
2021/12/07 13:15:04;;;;;;;6.77;2.77;;;;;;;11.94;43.29;98323.47;6894704;28;20239;-87
2021/12/07 13:18:31;;;;;;;3.93;2.20;;;;;;;12.26;41.56;98319.53;6894226;28;20196;-87
2021/12/07 13:22:03;;;;;;;3.43;2.20;;;;;;;12.40;42.17;98302.91;6892769;28;20204;-88
2021/12/07 13:25:42;;;;;;;5.60;2.20;;;;;;;12.37;40.39;98316.91;6899890;28;20231;-85
2021/12/07 13:29:08;;;;;;;6.00;2.40;;;;;;;11.88;41.92;98306.31;6900663;28;20215;-86
2021/12/07 13:32:33;;;;;;;2.90;1.90;;;;;;;11.32;42.71;98305.59;6897621;28;20208;-88
2021/12/07 13:36:04;;;;;;;3.33;2.00;;;;;;;11.46;42.83;98299.00;6903364;28;20224;-86
2021/12/07 13:39:39;;;;;;;3.00;2.30;;;;;;;11.14;43.66;98297.47;6916643;28;20196;-85
2021/12/07 13:43:01;;;;;;;6.27;2.23;;;;;;;11.33;43.37;98309.13;6932928;28;20215;-88
2021/12/07 13:47:04;;;;;;;4.40;2.17;;;;;;;11.53;43.53;98304.34;6936344;28;20230;-86
2021/12/07 13:50:44;;;;;;;5.73;2.70;;;;;;;11.43;42.85;98291.38;6930785;28;20270;-89
2021/12/07 13:54:07;;;;;;;3.40;2.20;;;;;;;11.34;42.93;98281.09;6932046;28;20231;-87
2021/12/07 13:57:30;;;;;;;3.63;2.30;;;;;;;11.46;42.54;98271.22;6937227;28;20307;-87
2021/12/07 14:05:25;;;;;;;2.63;2.27;;;;;;;11.46;42.21;98273.91;6936802;28;20226;-85
2021/12/07 14:08:52;;;;;;;3.77;2.20;;;;;;;10.68;42.08;98209.91;6935186;28;20217;-86
2021/12/07 14:12:14;;;;;;;5.27;2.47;;;;;;;11.41;42.15;98265.66;6936579;28;20261;-86
2021/12/07 14:15:42;;;;;;;5.43;3.10;;;;;;;11.16;42.38;98279.16;6937127;28;20235;-87
2021/12/07 14:19:05;;;;;;;3.63;2.13;;;;;;;10.74;42.97;98268.34;6938804;28;20677;-88
2021/12/07 14:22:27;;;;;;;2.63;2.10;;;;;;;10.30;44.01;98253.09;6938982;28;20221;-87
2021/12/07 17:55:58;;;;;;;4.33;3.50;;;;;;;6.95;52.60;97974.84;6614094;30;20238;-85
2021/12/07 18:21:19;;;;;;;7.13;4.30;;;;;;;7.06;52.30;97934.00;6924789;28;20290;-88
2021/12/07 18:24:41;;;;;;;6.03;3.77;;;;;;;6.81;52.45;97841.88;6912096;28;20228;-87
2021/12/07 18:31:49;;;;;;;5.87;5.07;;;;;;;7.00;52.15;97900.00;6865029;28;20195;-88
2021/12/07 18:35:12;;;;;;;8.70;5.13;;;;;;;6.76;52.52;97904.09;6930280;28;20239;-87
2021/12/07 18:38:45;;;;;;;6.87;4.80;;;;;;;6.61;53.74;97897.25;6930643;28;20207;-85
2021/12/07 18:42:11;;;;;;;8.00;5.87;;;;;;;6.33;54.64;97891.19;6931931;28;20207;-86
2021/12/07 18:45:33;;;;;;;6.87;6.00;;;;;;;6.53;54.14;97876.84;6930806;28;20224;-86
2021/12/07 18:54:09;;;;;;;7.13;5.93;;;;;;;6.46;54.44;97857.25;6924807;28;20204;-87
2021/12/07 18:57:31;;;;;;;9.67;5.60;;;;;;;6.08;55.20;97874.81;6925107;28;20281;-87
2021/12/07 19:01:03;;;;;;;10.23;6.63;;;;;;;6.24;55.23;97852.28;6929839;28;20348;-87
2021/12/07 19:04:25;;;;;;;5.80;4.73;;;;;;;5.86;54.89;97865.28;6931222;28;20223;-85
2021/12/07 19:11:48;;;;;;;7.73;4.80;;;;;;;5.95;56.38;97845.34;6850588;28;20220;-88
2021/12/07 19:19:23;;;;;;;11.37;6.20;;;;;;;6.28;55.00;97829.41;6919376;28;20212;-86
2021/12/07 19:22:45;;;;;;;8.77;4.90;;;;;;;6.33;55.96;97818.91;6929865;28;20208;-86
2021/12/07 19:26:12;;;;;;;6.83;3.90;;;;;;;6.62;55.24;97805.19;6931472;28;20313;-87
2021/12/07 19:29:35;;;;;;;10.40;5.77;;;;;;;6.80;54.36;97810.75;6935980;28;20274;-87
2021/12/07 19:36:39;;;;;;;7.07;5.03;;;;;;;6.99;54.14;97781.28;6921330;28;20246;-89
2021/12/07 19:40:21;;;;;;;;;;;;;;;;;;;;;
2021/12/07 19:43:43;;;;;;;6.10;4.57;;;;;;;7.32;52.80;97782.03;6920273;28;20227;-87
2021/12/07 19:51:38;;;;;;;7.10;4.80;;;;;;;7.41;51.86;97759.34;6852466;28;20247;-88
2021/12/07 20:00:02;;;;;;;4.07;3.63;;;;;;;6.45;54.40;97769.13;6771010;29;20208;-86
2021/12/07 20:04:15;;;;;;;4.13;3.70;;;;;;;6.46;54.76;97765.41;6821356;28;20211;-86
2021/12/07 20:07:41;;;;;;;9.27;4.40;;;;;;;6.50;54.08;97724.66;6831695;28;20275;-86
2021/12/07 20:28:55;;;;;;;4.57;3.30;;;;;;;6.56;54.55;97699.72;6591182;30;20359;-86
2021/12/07 21:32:26;;;;;;;6.13;3.23;;;;;;;7.32;49.71;97535.41;6712456;29;20225;-87
2021/12/07 21:35:48;;;;;;;6.03;3.50;;;;;;;7.13;48.81;97469.34;6720583;29;20244;-88
2021/12/07 21:56:35;;;;;;;3.20;2.90;;;;;;;7.43;49.12;97552.69;6762545;29;20728;-86
2021/12/07 21:59:57;;;;;;;5.83;3.30;;;;;;;6.70;49.52;97507.69;6773599;29;20245;-86
